createdAt,value
2023-01-28T00:02:45.493Z,1.157190635451505
2023-01-28T00:09:08.674Z,1.193979933110368
2023-01-28T00:15:30.317Z,0.8361204013377926
2023-01-28T00:21:52.898Z,1.1906354515050168
2023-01-28T00:32:31.479Z,0.882943143812709
2023-01-28T00:41:22.768Z,0.4816053511705686
2023-01-28T00:47:45.023Z,0.7792642140468228
2023-01-28T00:55:45.776Z,1.9531772575250836
2023-01-28T01:03:53.324Z,0.7625418060200669
2023-01-28T01:10:27.488Z,1.4180602006688963
2023-01-28T01:16:54.377Z,0.9498327759197325
2023-01-28T01:23:19.636Z,0.7959866220735786
2023-01-28T01:31:45.952Z,1.7692307692307692
2023-01-28T01:38:10.244Z,1.6588628762541806
2023-01-28T01:44:34.785Z,2.749163879598662
2023-01-28T01:53:54.251Z,0.842809364548495
2023-01-28T02:00:17.442Z,0.9565217391304348
2023-01-28T02:12:08.251Z,1.100334448160535
2023-01-28T02:18:32.662Z,0.9665551839464883
2023-01-28T02:24:55.152Z,0.5351170568561873
2023-01-28T02:39:13.837Z,0.9632107023411371
2023-01-28T02:47:15.237Z,0.5150501672240803
2023-01-28T02:53:36.668Z,0.8093645484949833
2023-01-28T03:00:00.139Z,0.7625418060200669
2023-01-28T03:08:54.669Z,1.0066889632107023
2023-01-28T03:15:17.784Z,0.6889632107023411
2023-01-28T03:21:40.822Z,1.2809364548494984
2023-01-28T03:28:04.926Z,1.4214046822742474
2023-01-28T03:42:37.742Z,0.6889632107023411
2023-01-28T03:49:00.013Z,1.234113712374582
2023-01-28T03:55:23.837Z,1.0301003344481605
2023-01-28T04:03:48.107Z,0.9297658862876255
2023-01-28T04:10:12.498Z,1.8494983277591974
2023-01-28T04:16:35.717Z,1.3311036789297659
2023-01-28T04:22:57.067Z,1.0903010033444815
2023-01-28T04:29:21.088Z,1.5150501672240804
2023-01-28T04:35:43.081Z,1.7558528428093645
2023-01-28T04:42:05.816Z,1.959866220735786
2023-01-28T04:48:28.630Z,1.3110367892976589
2023-01-28T04:54:52.155Z,1.665551839464883
2023-01-28T05:04:15.561Z,1.605351170568562
2023-01-28T05:11:29.318Z,1.705685618729097
2023-01-28T05:18:59.447Z,1.8528428093645486
2023-01-28T05:25:23.095Z,2.3645484949832776
2023-01-28T05:31:45.551Z,1.806020066889632
2023-01-28T05:38:10.328Z,1.4046822742474916
2023-01-28T05:44:32.431Z,2.0
2023-01-28T06:05:23.756Z,1.859531772575251
2023-01-28T06:17:05.147Z,2.0535117056856187
2023-01-28T06:23:29.639Z,2.331103678929766
2023-01-28T06:29:53.666Z,2.608695652173913
2023-01-28T06:36:17.555Z,2.0234113712374584
2023-01-28T06:55:39.586Z,2.979933110367893
2023-01-28T07:02:01.673Z,3.0501672240802677
2023-01-28T07:08:24.605Z,1.9966555183946488
2023-01-28T07:14:46.517Z,2.8929765886287626
2023-01-28T07:25:28.546Z,3.0903010033444818
2023-01-28T07:31:53.969Z,2.782608695652174
2023-01-28T07:39:21.575Z,2.7926421404682276
2023-01-28T07:50:44.928Z,3.1939799331103678
2023-01-28T07:57:11.389Z,1.9698996655518395
2023-01-28T08:09:33.864Z,2.719063545150502
2023-01-28T08:20:49.979Z,3.468227424749164
2023-01-28T08:35:31.515Z,2.9498327759197323
2023-01-28T08:41:57.166Z,2.8528428093645486
2023-01-28T08:55:40.312Z,3.9498327759197323
2023-01-28T09:02:06.811Z,3.0535117056856187
2023-01-28T09:08:32.823Z,4.153846153846154
2023-01-28T09:14:57.786Z,3.100334448160535
2023-01-28T09:24:39.909Z,3.678929765886288
2023-01-28T09:31:04.692Z,1.9531772575250836
2023-01-28T09:39:30.720Z,3.9464882943143813
2023-01-28T09:45:57.416Z,3.1471571906354514
2023-01-28T09:52:24.624Z,4.023411371237458
2023-01-28T09:58:49.380Z,4.20066889632107
2023-01-28T10:05:15.891Z,4.1237458193979935
2023-01-28T10:11:40.917Z,2.3979933110367893
2023-01-28T10:18:16.519Z,2.4180602006688963
2023-01-28T10:24:41.900Z,3.7123745819397995
2023-01-28T10:32:30.587Z,4.354515050167224
2023-01-28T10:39:28.063Z,3.096989966555184
2023-01-28T10:51:26.284Z,5.344481605351171
2023-01-28T10:57:52.500Z,2.9163879598662206
2023-01-28T11:04:16.942Z,3.20066889632107
2023-01-28T11:10:42.567Z,2.765886287625418
2023-01-28T11:17:05.944Z,1.9966555183946488
2023-01-28T11:23:27.547Z,2.020066889632107
2023-01-28T11:34:20.114Z,2.5953177257525084
2023-01-28T11:40:43.336Z,2.5752508361204014
2023-01-28T11:47:06.021Z,1.859531772575251
2023-01-28T11:53:31.737Z,2.4214046822742477
2023-01-28T12:05:29.559Z,2.822742474916388
2023-01-28T12:11:55.353Z,2.702341137123746
2023-01-28T12:22:57.098Z,3.3043478260869565
2023-01-28T12:40:46.485Z,2.5217391304347827
2023-01-28T12:58:27.259Z,2.3779264214046822
2023-01-28T13:04:52.208Z,2.177257525083612
2023-01-28T13:11:18.031Z,2.839464882943144
2023-01-28T13:23:49.929Z,4.3879598662207355
2023-01-28T13:30:15.913Z,3.2240802675585285
2023-01-28T13:45:05.118Z,3.3812709030100336
2023-01-28T13:51:29.503Z,2.6655518394648827
2023-01-28T13:57:54.847Z,2.37123745819398
2023-01-28T14:09:03.582Z,2.274247491638796
2023-01-28T14:16:22.140Z,1.7391304347826086
2023-01-28T14:22:47.344Z,2.4849498327759196
2023-01-28T14:30:25.002Z,2.8127090301003346
2023-01-28T14:36:52.220Z,2.274247491638796
2023-01-28T14:43:17.773Z,2.177257525083612
2023-01-28T14:52:37.142Z,2.210702341137124
2023-01-28T15:00:55.769Z,1.879598662207358
2023-01-28T15:07:21.678Z,2.3612040133779266
2023-01-28T15:17:26.018Z,3.0903010033444818
2023-01-28T15:26:13.921Z,2.6655518394648827
2023-01-28T15:32:39.222Z,2.725752508361204
2023-01-28T15:54:26.505Z,2.9498327759197323
2023-01-28T16:00:48.291Z,1.5719063545150502
2023-01-28T16:13:15.821Z,1.9632107023411371
2023-01-28T16:23:30.688Z,1.8361204013377928
2023-01-28T16:29:52.773Z,2.4214046822742477
2023-01-28T16:36:15.238Z,1.8896321070234114
2023-01-28T16:42:37.327Z,2.769230769230769
2023-01-28T16:48:58.844Z,3.294314381270903
2023-01-28T17:02:52.034Z,2.719063545150502
2023-01-28T17:09:15.350Z,2.8160535117056855
2023-01-28T17:24:49.127Z,2.1137123745819397
2023-01-28T17:31:14.105Z,2.280936454849498
2023-01-28T17:40:46.420Z,2.839464882943144
2023-01-28T17:47:08.272Z,2.6555183946488294
2023-01-28T17:53:59.929Z,2.137123745819398
2023-01-28T18:00:22.013Z,2.9264214046822743
2023-01-28T18:06:44.973Z,2.4147157190635453
2023-01-28T18:13:08.234Z,2.983277591973244
2023-01-28T18:19:51.688Z,2.4648829431438126
2023-01-28T18:26:15.278Z,2.2675585284280935
2023-01-28T18:39:29.193Z,2.2140468227424748
2023-01-28T18:45:50.959Z,5.993311036789297
2023-01-28T18:52:14.746Z,3.3578595317725752
2023-01-28T19:06:52.642Z,1.7725752508361203
2023-01-28T19:17:43.617Z,2.0702341137123748
2023-01-28T19:34:35.725Z,2.317725752508361
2023-01-28T19:40:57.824Z,2.6588628762541804
2023-01-28T19:47:21.690Z,5.301003344481606
2023-01-28T20:04:33.073Z,7.698996655518394
2023-01-28T20:10:56.076Z,5.240802675585284
2023-01-28T20:17:18.759Z,5.642140468227424
2023-01-28T20:23:43.014Z,6.62876254180602
2023-01-28T20:30:47.789Z,6.193979933110368
2023-01-28T20:37:10.752Z,6.25752508361204
2023-01-28T20:43:33.299Z,2.431438127090301
2023-01-28T20:49:57.195Z,2.5384615384615383
2023-01-28T20:56:28.730Z,2.0668896321070234
2023-01-28T21:11:22.991Z,2.5250836120401337
2023-01-28T21:21:04.549Z,3.3277591973244145
2023-01-28T21:27:33.129Z,3.725752508361204
2023-01-28T21:33:55.747Z,4.929765886287625
2023-01-28T21:40:56.752Z,3.197324414715719
2023-01-28T21:48:01.075Z,3.040133779264214
2023-01-28T21:54:47.782Z,2.531772575250836
2023-01-28T22:07:40.421Z,2.297658862876254
2023-01-28T22:14:08.484Z,2.7525083612040135
2023-01-28T22:20:31.738Z,2.3812709030100336
2023-01-28T22:26:54.564Z,2.1036789297658864
2023-01-28T22:33:18.569Z,2.25752508361204
2023-01-28T22:39:41.838Z,2.250836120401338
2023-01-28T22:50:11.887Z,2.117056856187291
2023-01-28T22:56:35.498Z,2.5150501672240804
2023-01-28T23:02:59.322Z,2.0635451505016724
2023-01-28T23:09:24.874Z,2.4180602006688963
2023-01-28T23:15:48.020Z,2.0267558528428093
2023-01-28T23:22:10.702Z,1.9933110367892977
2023-01-28T23:33:39.361Z,2.568561872909699
2023-01-28T23:40:02.250Z,1.9866220735785953
2023-01-28T23:46:38.587Z,2.849498327759197
2023-01-28T23:53:06.069Z,2.568561872909699
2023-01-28T23:59:29.440Z,3.668896321070234
